createdAt,value
2018-01-18T00:00:41.802Z,0
2018-01-18T00:01:51.566Z,0
2018-01-18T00:03:01.325Z,0
2018-01-18T00:04:10.552Z,0
2018-01-18T00:05:20.293Z,0
2018-01-18T00:06:30.281Z,0
2018-01-18T00:07:39.745Z,0
2018-01-18T00:08:49.230Z,0
2018-01-18T00:09:59.216Z,0
2018-01-18T00:11:08.946Z,0
2018-01-18T00:12:18.688Z,0
2018-01-18T00:13:28.431Z,0
2018-01-18T00:14:37.627Z,0
2018-01-18T00:15:47.622Z,0
2018-01-18T00:16:57.397Z,0
2018-01-18T00:18:06.852Z,0
2018-01-18T00:19:16.316Z,0
2018-01-18T00:20:25.803Z,0
2018-01-18T00:21:34.753Z,0
2018-01-18T00:22:44.226Z,0
2018-01-18T00:23:53.687Z,0
2018-01-18T00:25:02.899Z,0
2018-01-18T00:26:12.419Z,0
2018-01-18T00:27:22.149Z,0
2018-01-18T00:28:31.364Z,0
2018-01-18T00:29:41.089Z,0
2018-01-18T00:30:50.303Z,0
2018-01-18T00:31:59.887Z,0
2018-01-18T00:33:09.682Z,0
2018-01-18T00:34:18.907Z,0
2018-01-18T00:35:28.392Z,0
2018-01-18T00:36:38.386Z,0
2018-01-18T00:37:48.111Z,0
2018-01-18T00:38:57.584Z,0
2018-01-18T00:40:06.790Z,0
2018-01-18T00:41:16.262Z,0
2018-01-18T00:42:26.263Z,0
2018-01-18T00:43:35.989Z,0
2018-01-18T00:44:45.457Z,0
2018-01-18T00:45:54.912Z,0
2018-01-18T00:47:04.632Z,0
2018-01-18T00:48:13.822Z,0
2018-01-18T00:49:23.276Z,0
2018-01-18T00:50:32.740Z,0
2018-01-18T00:51:42.744Z,0
2018-01-18T00:52:51.666Z,0
2018-01-18T00:54:01.396Z,0
2018-01-18T00:55:10.860Z,0
2018-01-18T00:56:20.340Z,0
2018-01-18T00:57:29.538Z,0
2018-01-18T00:58:39.015Z,0
2018-01-18T00:59:48.529Z,0
2018-01-18T01:00:58.251Z,0
2018-01-18T01:02:07.995Z,0
2018-01-18T01:03:17.712Z,0
2018-01-18T01:04:27.529Z,0
2018-01-18T01:05:37.278Z,0
2018-01-18T01:06:46.496Z,0
2018-01-18T01:07:55.692Z,0
2018-01-18T01:09:05.151Z,0
2018-01-18T01:10:15.136Z,0
2018-01-18T01:11:24.485Z,0
2018-01-18T01:12:34.275Z,0
2018-01-18T01:13:43.463Z,0
2018-01-18T01:14:53.195Z,0
2018-01-18T01:16:03.163Z,0
2018-01-18T01:17:12.629Z,0
2018-01-18T01:18:22.086Z,0
2018-01-18T01:19:31.025Z,0
2018-01-18T01:20:40.505Z,0
2018-01-18T01:21:50.510Z,0
2018-01-18T01:22:59.744Z,0
2018-01-18T01:24:09.222Z,0
2018-01-18T01:25:18.421Z,0
2018-01-18T01:26:27.881Z,0
2018-01-18T01:27:37.617Z,0
2018-01-18T01:28:47.628Z,0
2018-01-18T01:29:57.398Z,0
2018-01-18T01:31:07.112Z,0
2018-01-18T01:32:17.132Z,0
2018-01-18T01:33:26.623Z,0
2018-01-18T01:34:36.348Z,0
2018-01-18T01:35:45.834Z,0
2018-01-18T01:36:55.301Z,0
2018-01-18T01:38:05.161Z,0
2018-01-18T01:39:14.923Z,0
2018-01-18T01:40:24.460Z,0
2018-01-18T01:41:33.651Z,0
2018-01-18T01:42:43.488Z,0
2018-01-18T01:43:53.473Z,0
2018-01-18T01:45:02.731Z,0
2018-01-18T01:46:12.507Z,0
2018-01-18T01:47:22.265Z,0
2018-01-18T01:48:31.880Z,0
2018-01-18T01:49:41.723Z,0
2018-01-18T01:50:51.588Z,0
2018-01-18T01:52:01.353Z,0
2018-01-18T01:53:11.140Z,0
2018-01-18T01:54:20.062Z,0
2018-01-18T01:55:30.063Z,0
2018-01-18T01:56:39.840Z,0
2018-01-18T01:57:49.307Z,0
2018-01-18T01:58:59.122Z,0
2018-01-18T02:00:08.886Z,0
2018-01-18T02:01:18.880Z,0
2018-01-18T02:02:28.982Z,0
2018-01-18T02:03:38.463Z,0
2018-01-18T02:04:47.657Z,0
2018-01-18T02:05:56.871Z,0
2018-01-18T02:07:06.591Z,0
2018-01-18T02:08:16.327Z,0
2018-01-18T02:09:25.800Z,0
2018-01-18T02:10:35.801Z,0
2018-01-18T02:11:45.824Z,0
2018-01-18T02:12:54.757Z,0
2018-01-18T02:14:04.503Z,0
2018-01-18T02:15:14.238Z,0
2018-01-18T02:16:23.710Z,0
2018-01-18T02:17:33.445Z,0
2018-01-18T02:18:43.175Z,0
2018-01-18T02:19:52.669Z,0
2018-01-18T02:21:02.150Z,0
2018-01-18T02:22:11.905Z,0
2018-01-18T02:23:21.378Z,0
2018-01-18T02:24:31.383Z,0
2018-01-18T02:25:41.456Z,0
2018-01-18T02:26:50.733Z,0
2018-01-18T02:28:00.200Z,0
2018-01-18T02:29:09.945Z,0
2018-01-18T02:30:19.171Z,0
2018-01-18T02:31:28.912Z,0
2018-01-18T02:32:38.777Z,0
2018-01-18T02:33:48.265Z,0
2018-01-18T02:34:57.728Z,0
2018-01-18T02:36:07.224Z,0
2018-01-18T02:37:17.070Z,0
2018-01-18T02:38:26.664Z,0
2018-01-18T02:39:35.698Z,0
2018-01-18T02:40:45.628Z,0
2018-01-18T02:41:55.405Z,0
2018-01-18T02:43:05.164Z,0
2018-01-18T02:44:14.959Z,0
2018-01-18T02:45:24.630Z,0
2018-01-18T02:46:34.148Z,0
2018-01-18T02:47:44.716Z,0
2018-01-18T02:48:55.313Z,0
2018-01-18T02:50:05.021Z,0
2018-01-18T02:51:14.987Z,0
2018-01-18T02:52:24.846Z,0
2018-01-18T02:53:34.446Z,0
2018-01-18T02:54:43.987Z,0
2018-01-18T02:55:53.618Z,0
2018-01-18T02:57:03.379Z,0
2018-01-18T02:58:13.101Z,0
2018-01-18T02:59:22.573Z,0
2018-01-18T03:00:32.110Z,0
2018-01-18T03:01:42.168Z,0
2018-01-18T03:02:51.374Z,0
2018-01-18T03:04:00.927Z,0
2018-01-18T03:05:10.218Z,0
2018-01-18T03:06:19.428Z,0
2018-01-18T03:07:29.476Z,0
2018-01-18T03:08:38.725Z,0
2018-01-18T03:09:48.189Z,0
2018-01-18T03:10:58.190Z,0
2018-01-18T03:12:07.432Z,0
2018-01-18T03:13:16.907Z,0
2018-01-18T03:14:26.672Z,0
2018-01-18T03:15:36.154Z,0
2018-01-18T03:16:45.134Z,0
2018-01-18T03:17:54.337Z,0
2018-01-18T03:19:04.186Z,0
2018-01-18T03:20:14.001Z,0
2018-01-18T03:21:24.012Z,0
2018-01-18T03:22:33.235Z,0
2018-01-18T03:23:42.714Z,0
2018-01-18T03:24:51.929Z,0
2018-01-18T03:26:01.970Z,0
2018-01-18T03:27:11.854Z,0
2018-01-18T03:28:21.649Z,0
2018-01-18T03:29:31.153Z,0
2018-01-18T03:30:40.949Z,0
2018-01-18T03:31:50.285Z,0
2018-01-18T03:33:00.015Z,0
2018-01-18T03:34:09.509Z,0
2018-01-18T03:35:19.359Z,0
2018-01-18T03:36:29.108Z,0
2018-01-18T03:37:39.115Z,0
2018-01-18T03:38:48.831Z,0
2018-01-18T03:39:57.760Z,0
2018-01-18T03:41:07.016Z,0
2018-01-18T03:42:16.480Z,0
2018-01-18T03:43:25.690Z,0
2018-01-18T03:44:34.978Z,0
2018-01-18T03:45:44.937Z,0
2018-01-18T03:46:54.149Z,0
2018-01-18T03:48:04.136Z,0
2018-01-18T03:49:13.343Z,0
2018-01-18T03:50:22.796Z,0
2018-01-18T03:51:32.041Z,0
2018-01-18T03:52:41.785Z,0
2018-01-18T03:53:51.512Z,0
2018-01-18T03:55:00.978Z,0
2018-01-18T03:56:10.446Z,0
2018-01-18T03:57:20.178Z,0
2018-01-18T03:58:29.920Z,0
2018-01-18T03:59:39.378Z,0
2018-01-18T04:00:48.580Z,0
2018-01-18T04:01:58.044Z,0
2018-01-18T04:03:07.779Z,0
2018-01-18T04:04:16.986Z,0
2018-01-18T04:05:26.438Z,0
2018-01-18T04:06:35.916Z,0
2018-01-18T04:07:45.918Z,0
2018-01-18T04:08:55.115Z,0
2018-01-18T04:10:05.117Z,0
2018-01-18T04:11:14.324Z,0
2018-01-18T04:12:24.380Z,0
2018-01-18T04:13:34.113Z,0
2018-01-18T04:14:43.836Z,0
2018-01-18T04:15:53.453Z,0
2018-01-18T04:17:02.918Z,0
2018-01-18T04:18:12.393Z,0
2018-01-18T04:19:21.595Z,0
2018-01-18T04:20:31.642Z,0
2018-01-18T04:21:40.840Z,0
2018-01-18T04:22:50.295Z,0
2018-01-18T04:23:59.758Z,0
2018-01-18T04:25:08.692Z,0
2018-01-18T04:26:17.902Z,0
2018-01-18T04:27:27.365Z,0
2018-01-18T04:28:37.140Z,0
2018-01-18T04:29:46.654Z,0
2018-01-18T04:30:55.573Z,0
2018-01-18T04:32:05.040Z,0
2018-01-18T04:33:14.833Z,0
2018-01-18T04:34:24.894Z,0
2018-01-18T04:35:34.364Z,0
2018-01-18T04:36:43.841Z,0
2018-01-18T04:37:53.566Z,0
2018-01-18T04:39:03.023Z,0
2018-01-18T04:40:12.490Z,0
2018-01-18T04:41:21.954Z,0
2018-01-18T04:42:31.159Z,0
2018-01-18T04:43:40.362Z,0
2018-01-18T04:44:50.363Z,0
2018-01-18T04:46:00.096Z,0
2018-01-18T04:47:09.306Z,0
2018-01-18T04:48:18.773Z,0
2018-01-18T04:49:28.505Z,0
2018-01-18T04:50:37.704Z,0
2018-01-18T04:51:46.898Z,0
2018-01-18T04:52:56.920Z,0
2018-01-18T04:54:06.379Z,0
2018-01-18T04:55:16.382Z,0
2018-01-18T04:56:25.895Z,0
2018-01-18T04:57:35.091Z,0
2018-01-18T04:58:44.558Z,0
2018-01-18T04:59:54.309Z,0
2018-01-18T05:01:04.029Z,0
2018-01-18T05:02:13.495Z,0
2018-01-18T05:03:23.250Z,0
2018-01-18T05:04:33.250Z,0
2018-01-18T05:05:43.260Z,0
2018-01-18T05:06:52.981Z,0
2018-01-18T05:08:02.459Z,0
2018-01-18T05:09:11.929Z,0
2018-01-18T05:10:21.938Z,0
2018-01-18T05:11:31.936Z,0
2018-01-18T05:12:41.406Z,0
2018-01-18T05:13:51.281Z,0
2018-01-18T05:15:01.016Z,0
2018-01-18T05:16:09.960Z,0
2018-01-18T05:17:19.148Z,0
2018-01-18T05:18:28.905Z,0
2018-01-18T05:19:38.637Z,0
2018-01-18T05:20:48.385Z,0
2018-01-18T05:21:58.149Z,0
2018-01-18T05:23:07.647Z,0
2018-01-18T05:24:17.107Z,0
2018-01-18T05:25:26.568Z,0
2018-01-18T05:26:36.290Z,0
2018-01-18T05:27:45.499Z,0
2018-01-18T05:28:54.967Z,0
2018-01-18T05:30:04.179Z,0
2018-01-18T05:31:13.657Z,0
2018-01-18T05:32:23.128Z,0
2018-01-18T05:33:32.874Z,0
2018-01-18T05:34:42.080Z,0
2018-01-18T05:35:51.812Z,0
2018-01-18T05:37:01.008Z,0
2018-01-18T05:38:10.732Z,0
2018-01-18T05:39:20.589Z,0
2018-01-18T05:40:30.613Z,0
2018-01-18T05:41:40.064Z,0
2018-01-18T05:42:49.528Z,0
2018-01-18T05:43:58.981Z,0
2018-01-18T05:45:08.594Z,0
2018-01-18T05:46:17.891Z,0
2018-01-18T05:47:27.449Z,0
2018-01-18T05:48:37.184Z,0
2018-01-18T05:49:47.204Z,0
2018-01-18T05:50:56.948Z,0
2018-01-18T05:52:06.442Z,0
2018-01-18T05:53:15.727Z,0
2018-01-18T05:54:24.400Z,0
2018-01-18T05:55:34.146Z,0
2018-01-18T05:56:43.879Z,0
2018-01-18T05:57:53.086Z,0
2018-01-18T05:59:02.939Z,0
2018-01-18T06:00:12.690Z,0
2018-01-18T06:01:22.415Z,0
2018-01-18T06:02:31.920Z,0
2018-01-18T06:03:42.228Z,0
2018-01-18T06:04:51.977Z,0
2018-01-18T06:06:01.978Z,0
2018-01-18T06:07:11.967Z,0
2018-01-18T06:08:21.056Z,0
2018-01-18T06:09:30.284Z,0
2018-01-18T06:10:40.020Z,0
2018-01-18T06:11:49.765Z,0
2018-01-18T06:12:58.736Z,0
2018-01-18T06:14:07.925Z,0
2018-01-18T06:15:17.404Z,0
2018-01-18T06:16:27.145Z,0
2018-01-18T06:17:36.617Z,0
2018-01-18T06:18:45.820Z,0
2018-01-18T06:19:55.468Z,4
2018-01-18T06:21:05.733Z,4
2018-01-18T06:22:15.928Z,0
2018-01-18T06:23:25.766Z,4
2018-01-18T06:24:35.941Z,4
2018-01-18T06:25:45.932Z,4
2018-01-18T06:26:55.725Z,4
2018-01-18T06:28:05.191Z,0
2018-01-18T06:29:15.027Z,0
2018-01-18T06:30:25.036Z,4
2018-01-18T06:31:35.030Z,4
2018-01-18T06:32:44.501Z,4
2018-01-18T06:33:53.963Z,4
2018-01-18T06:35:03.579Z,4
2018-01-18T06:36:13.344Z,4
2018-01-18T06:37:22.962Z,4
2018-01-18T06:38:32.642Z,4
2018-01-18T06:39:41.875Z,4
2018-01-18T06:40:51.718Z,4
2018-01-18T06:42:01.187Z,4
2018-01-18T06:43:11.102Z,4
2018-01-18T06:44:21.341Z,4
2018-01-18T06:45:31.112Z,4
2018-01-18T06:46:41.135Z,4
2018-01-18T06:47:50.602Z,4
2018-01-18T06:49:00.620Z,4
2018-01-18T06:50:10.396Z,4
2018-01-18T06:51:19.591Z,0
2018-01-18T06:52:29.111Z,4
2018-01-18T06:53:38.589Z,0
2018-01-18T06:54:48.072Z,0
2018-01-18T06:55:57.680Z,0
2018-01-18T06:57:07.837Z,0
2018-01-18T06:58:17.334Z,4
2018-01-18T06:59:27.340Z,4
2018-01-18T07:00:37.114Z,4
2018-01-18T07:01:47.140Z,4
2018-01-18T07:02:56.614Z,4
2018-01-18T07:04:06.114Z,4
2018-01-18T07:05:15.326Z,4
2018-01-18T07:06:25.061Z,4
2018-01-18T07:07:34.812Z,4
2018-01-18T07:08:44.337Z,4
2018-01-18T07:09:54.491Z,4
2018-01-18T07:11:03.967Z,8
2018-01-18T07:12:13.668Z,4
2018-01-18T07:13:23.280Z,4
2018-01-18T07:14:33.148Z,8
2018-01-18T07:15:42.722Z,8
2018-01-18T07:16:52.272Z,8
2018-01-18T07:18:01.774Z,8
2018-01-18T07:19:11.571Z,8
2018-01-18T07:20:21.082Z,16
2018-01-18T07:21:30.885Z,12
2018-01-18T07:22:40.621Z,16
2018-01-18T07:23:50.133Z,16
2018-01-18T07:25:00.137Z,20
2018-01-18T07:26:09.877Z,24
2018-01-18T07:27:19.940Z,24
2018-01-18T07:28:29.938Z,20
2018-01-18T07:29:39.410Z,20
2018-01-18T07:30:48.658Z,24
2018-01-18T07:31:57.932Z,28
2018-01-18T07:33:07.423Z,16
2018-01-18T07:34:16.909Z,16
2018-01-18T07:35:26.935Z,28
2018-01-18T07:36:36.687Z,36
2018-01-18T07:37:46.404Z,48
2018-01-18T07:38:56.139Z,64
2018-01-18T07:40:05.935Z,60
2018-01-18T07:41:15.412Z,76
2018-01-18T07:42:25.229Z,64
2018-01-18T07:43:35.000Z,64
2018-01-18T07:44:44.509Z,72
2018-01-18T07:45:53.737Z,84
2018-01-18T07:47:03.464Z,116
2018-01-18T07:48:13.059Z,128
2018-01-18T07:49:22.006Z,168
2018-01-18T07:50:31.514Z,160
2018-01-18T07:51:41.310Z,124
2018-01-18T07:52:50.778Z,92
2018-01-18T07:54:00.699Z,100
2018-01-18T07:55:10.796Z,128
2018-01-18T07:56:20.481Z,192
2018-01-18T07:57:30.048Z,280
2018-01-18T07:58:40.076Z,296
2018-01-18T07:59:49.826Z,264
2018-01-18T08:00:59.642Z,176
2018-01-18T08:02:09.382Z,112
2018-01-18T08:03:18.635Z,104
2018-01-18T08:04:28.729Z,156
2018-01-18T08:05:38.463Z,260
2018-01-18T08:06:48.255Z,352
2018-01-18T08:07:57.510Z,344
2018-01-18T08:09:06.723Z,288
2018-01-18T08:10:16.742Z,192
2018-01-18T08:11:26.059Z,196
2018-01-18T08:12:35.794Z,184
2018-01-18T08:13:45.399Z,216
2018-01-18T08:14:54.664Z,212
2018-01-18T08:16:05.131Z,224
2018-01-18T08:17:15.127Z,248
2018-01-18T08:18:24.209Z,264
2018-01-18T08:19:33.765Z,280
2018-01-18T08:20:43.431Z,272
2018-01-18T08:21:53.506Z,208
2018-01-18T08:23:03.204Z,196
2018-01-18T08:24:12.992Z,340
2018-01-18T08:25:23.015Z,452
2018-01-18T08:26:32.722Z,536
2018-01-18T08:27:42.813Z,596
2018-01-18T08:28:52.317Z,480
2018-01-18T08:30:01.567Z,260
2018-01-18T08:31:11.291Z,216
2018-01-18T08:32:20.222Z,256
2018-01-18T08:33:30.246Z,264
2018-01-18T08:34:39.993Z,308
2018-01-18T08:35:49.726Z,260
2018-01-18T08:36:58.942Z,216
2018-01-18T08:38:08.143Z,388
2018-01-18T08:39:17.911Z,600
2018-01-18T08:40:27.807Z,668
2018-01-18T08:41:37.265Z,796
2018-01-18T08:42:47.209Z,988
2018-01-18T08:43:56.510Z,984
2018-01-18T08:45:06.117Z,836
2018-01-18T08:46:15.362Z,760
2018-01-18T08:47:25.106Z,600
2018-01-18T08:48:34.588Z,528
2018-01-18T08:49:44.099Z,632
2018-01-18T08:50:53.614Z,856
2018-01-18T08:52:03.425Z,672
2018-01-18T08:53:12.907Z,912
2018-01-18T08:54:22.333Z,1176
2018-01-18T08:55:31.617Z,772
2018-01-18T08:56:40.654Z,608
2018-01-18T08:57:49.922Z,576
2018-01-18T08:58:59.134Z,596
2018-01-18T09:00:08.871Z,596
2018-01-18T09:01:18.792Z,396
2018-01-18T09:02:28.559Z,308
2018-01-18T09:03:38.172Z,336
2018-01-18T09:04:47.533Z,336
2018-01-18T09:05:57.275Z,496
2018-01-18T09:07:07.417Z,260
2018-01-18T09:08:16.672Z,232
2018-01-18T09:09:26.156Z,512
2018-01-18T09:10:35.877Z,976
2018-01-18T09:11:45.622Z,1228
2018-01-18T09:12:55.083Z,1132
2018-01-18T09:14:05.167Z,1092
2018-01-18T09:15:14.925Z,732
2018-01-18T09:16:24.956Z,500
2018-01-18T09:17:34.423Z,592
2018-01-18T09:18:43.892Z,696
2018-01-18T09:19:53.437Z,572
2018-01-18T09:21:02.821Z,524
2018-01-18T09:22:12.419Z,548
2018-01-18T09:23:22.169Z,520
2018-01-18T09:24:31.625Z,560
2018-01-18T09:25:41.136Z,748
2018-01-18T09:26:51.128Z,656
2018-01-18T09:28:00.896Z,648
2018-01-18T09:29:10.669Z,548
2018-01-18T09:30:20.142Z,732
2018-01-18T09:31:30.155Z,688
2018-01-18T09:32:39.885Z,852
2018-01-18T09:33:49.900Z,784
2018-01-18T09:34:58.844Z,740
2018-01-18T09:36:08.395Z,596
2018-01-18T09:37:18.323Z,588
2018-01-18T09:38:27.537Z,572
2018-01-18T09:39:37.084Z,856
2018-01-18T09:40:47.140Z,916
2018-01-18T09:41:56.884Z,1016
2018-01-18T09:43:06.355Z,960
2018-01-18T09:44:15.321Z,1148
2018-01-18T09:45:24.553Z,1652
2018-01-18T09:46:34.028Z,2012
2018-01-18T09:47:43.512Z,1924
2018-01-18T09:48:53.545Z,1764
2018-01-18T09:50:03.012Z,1640
2018-01-18T09:51:12.503Z,1944
2018-01-18T09:52:22.272Z,1856
2018-01-18T09:53:31.744Z,1808
2018-01-18T09:54:41.764Z,1572
2018-01-18T09:55:50.708Z,1400
2018-01-18T09:57:00.733Z,1448
2018-01-18T09:58:10.493Z,1672
2018-01-18T09:59:20.273Z,1464
2018-01-18T10:00:30.379Z,1208
2018-01-18T10:01:40.037Z,1100
2018-01-18T10:02:49.781Z,1324
2018-01-18T10:03:59.529Z,1060
2018-01-18T10:05:09.001Z,1072
2018-01-18T10:06:18.211Z,1196
2018-01-18T10:07:27.697Z,1120
2018-01-18T10:08:37.166Z,948
2018-01-18T10:09:46.122Z,1156
2018-01-18T10:10:55.076Z,1164
2018-01-18T10:12:04.592Z,796
2018-01-18T10:13:13.799Z,1088
2018-01-18T10:14:23.283Z,1048
2018-01-18T10:15:32.490Z,816
2018-01-18T10:16:41.440Z,1144
2018-01-18T10:17:50.680Z,828
2018-01-18T10:19:00.460Z,876
2018-01-18T10:20:10.052Z,824
2018-01-18T10:21:19.082Z,1188
2018-01-18T10:22:28.827Z,900
2018-01-18T10:23:38.289Z,956
2018-01-18T10:24:47.543Z,1244
2018-01-18T10:25:56.804Z,1224
2018-01-18T10:27:06.546Z,1224
2018-01-18T10:28:16.618Z,904
2018-01-18T10:29:26.137Z,1180
2018-01-18T10:30:35.709Z,1424
2018-01-18T10:31:45.459Z,1184
2018-01-18T10:32:54.661Z,1112
2018-01-18T10:34:04.208Z,1312
2018-01-18T10:35:13.945Z,1256
2018-01-18T10:36:23.151Z,1156
2018-01-18T10:37:32.435Z,1216
2018-01-18T10:38:42.282Z,1152
2018-01-18T10:39:51.932Z,920
2018-01-18T10:41:02.044Z,888
2018-01-18T10:42:11.770Z,904
2018-01-18T10:43:20.971Z,988
2018-01-18T10:44:30.709Z,1056
2018-01-18T10:45:40.245Z,1072
2018-01-18T10:46:50.282Z,964
2018-01-18T10:47:59.846Z,1092
2018-01-18T10:49:09.609Z,1064
2018-01-18T10:50:18.823Z,1140
2018-01-18T10:51:28.300Z,1184
2018-01-18T10:52:37.514Z,1120
2018-01-18T10:53:46.998Z,1212
2018-01-18T10:54:55.940Z,1340
2018-01-18T10:56:05.140Z,1224
2018-01-18T10:57:14.651Z,1188
2018-01-18T10:58:23.612Z,964
2018-01-18T10:59:33.075Z,968
2018-01-18T11:00:42.548Z,1040
2018-01-18T11:01:51.518Z,1060
2018-01-18T11:03:01.148Z,924
2018-01-18T11:04:10.545Z,1024
2018-01-18T11:05:19.515Z,1184
2018-01-18T11:06:28.452Z,1156
2018-01-18T11:07:38.243Z,980
2018-01-18T11:08:47.793Z,896
2018-01-18T11:09:57.025Z,920
2018-01-18T11:11:06.235Z,1084
2018-01-18T11:12:15.713Z,976
2018-01-18T11:13:25.440Z,1028
2018-01-18T11:14:34.388Z,1100
2018-01-18T11:15:44.126Z,1136
2018-01-18T11:16:53.855Z,1004
2018-01-18T11:18:03.607Z,1164
2018-01-18T11:19:12.807Z,1180
2018-01-18T11:20:22.033Z,1080
2018-01-18T11:21:31.875Z,1040
2018-01-18T11:22:41.762Z,1136
2018-01-18T11:23:51.702Z,1036
2018-01-18T11:25:00.920Z,856
2018-01-18T11:26:10.291Z,968
2018-01-18T11:27:20.386Z,1036
2018-01-18T11:28:30.501Z,920
2018-01-18T11:29:40.150Z,1024
2018-01-18T11:30:49.373Z,912
2018-01-18T11:31:58.694Z,804
2018-01-18T11:33:08.433Z,844
2018-01-18T11:34:17.936Z,916
2018-01-18T11:35:27.938Z,912
2018-01-18T11:36:37.447Z,1116
2018-01-18T11:37:46.931Z,1012
2018-01-18T11:38:56.165Z,776
2018-01-18T11:40:05.369Z,808
2018-01-18T11:41:15.393Z,856
2018-01-18T11:42:25.137Z,828
2018-01-18T11:43:34.608Z,864
2018-01-18T11:44:43.838Z,840
2018-01-18T11:45:52.867Z,1244
2018-01-18T11:47:02.248Z,1336
2018-01-18T11:48:11.043Z,1240
2018-01-18T11:49:20.993Z,1248
2018-01-18T11:50:30.768Z,808
2018-01-18T11:51:40.641Z,904
2018-01-18T11:52:50.839Z,876
2018-01-18T11:53:59.896Z,916
2018-01-18T11:55:09.189Z,700
2018-01-18T11:56:18.674Z,816
2018-01-18T11:57:27.883Z,792
2018-01-18T11:58:37.637Z,1004
2018-01-18T11:59:47.117Z,1028
2018-01-18T12:00:57.134Z,1212
2018-01-18T12:02:06.926Z,1292
2018-01-18T12:03:17.165Z,1300
2018-01-18T12:04:26.911Z,756
2018-01-18T12:05:35.936Z,808
2018-01-18T12:06:45.408Z,1216
2018-01-18T12:07:54.453Z,1312
2018-01-18T12:09:04.423Z,1520
2018-01-18T12:10:13.702Z,1344
2018-01-18T12:11:23.797Z,1164
2018-01-18T12:12:33.529Z,940
2018-01-18T12:13:43.247Z,1360
2018-01-18T12:14:53.016Z,1544
2018-01-18T12:16:02.746Z,1776
2018-01-18T12:17:12.431Z,1624
2018-01-18T12:18:21.940Z,1984
2018-01-18T12:19:31.153Z,1108
2018-01-18T12:20:40.628Z,1288
2018-01-18T12:21:50.384Z,1076
2018-01-18T12:23:00.132Z,1292
2018-01-18T12:24:09.409Z,1736
2018-01-18T12:25:19.235Z,1608
2018-01-18T12:26:28.687Z,1648
2018-01-18T12:27:38.423Z,1492
2018-01-18T12:28:47.899Z,1640
2018-01-18T12:29:57.387Z,1304
2018-01-18T12:31:06.375Z,1016
2018-01-18T12:32:15.666Z,824
2018-01-18T12:33:25.784Z,844
2018-01-18T12:34:35.594Z,884
2018-01-18T12:35:45.728Z,864
2018-01-18T12:36:55.517Z,948
2018-01-18T12:38:05.048Z,852
2018-01-18T12:39:15.045Z,1028
2018-01-18T12:40:24.252Z,980
2018-01-18T12:41:33.989Z,1028
2018-01-18T12:42:43.782Z,996
2018-01-18T12:43:53.538Z,984
2018-01-18T12:45:02.831Z,1224
2018-01-18T12:46:12.313Z,1772
2018-01-18T12:47:22.330Z,1592
2018-01-18T12:48:31.710Z,1176
2018-01-18T12:49:41.439Z,1020
2018-01-18T12:50:51.194Z,1080
2018-01-18T12:52:00.695Z,972
2018-01-18T12:53:10.175Z,1456
2018-01-18T12:54:19.634Z,1224
2018-01-18T12:55:29.164Z,1168
2018-01-18T12:56:38.377Z,1076
2018-01-18T12:57:47.890Z,1184
2018-01-18T12:58:57.160Z,1092
2018-01-18T13:00:07.002Z,1144
2018-01-18T13:01:16.081Z,1092
2018-01-18T13:02:25.692Z,992
2018-01-18T13:03:35.262Z,1048
2018-01-18T13:04:44.818Z,1108
2018-01-18T13:05:54.734Z,1512
2018-01-18T13:07:04.492Z,1472
2018-01-18T13:08:14.055Z,1212
2018-01-18T13:09:24.099Z,1652
2018-01-18T13:10:33.585Z,1264
2018-01-18T13:11:43.097Z,1448
2018-01-18T13:12:52.578Z,1332
2018-01-18T13:14:02.671Z,1516
2018-01-18T13:15:11.920Z,1120
2018-01-18T13:16:21.778Z,948
2018-01-18T13:17:31.242Z,864
2018-01-18T13:18:40.463Z,548
2018-01-18T13:19:50.243Z,504
2018-01-18T13:21:00.055Z,596
2018-01-18T13:22:09.262Z,624
2018-01-18T13:23:19.006Z,576
2018-01-18T13:24:28.282Z,532
2018-01-18T13:25:38.258Z,464
2018-01-18T13:26:48.612Z,428
2018-01-18T13:27:57.824Z,384
2018-01-18T13:29:07.815Z,352
2018-01-18T13:30:17.593Z,360
2018-01-18T13:31:27.655Z,452
2018-01-18T13:32:37.376Z,460
2018-01-18T13:33:47.408Z,476
2018-01-18T13:34:57.128Z,404
2018-01-18T13:36:06.862Z,388
2018-01-18T13:37:16.641Z,340
2018-01-18T13:38:26.182Z,320
2018-01-18T13:39:36.013Z,300
2018-01-18T13:40:45.928Z,464
2018-01-18T13:41:55.658Z,1044
2018-01-18T13:43:05.170Z,900
2018-01-18T13:44:14.706Z,448
2018-01-18T13:45:24.206Z,336
2018-01-18T13:46:33.693Z,372
2018-01-18T13:47:42.969Z,360
2018-01-18T13:48:52.323Z,424
2018-01-18T13:50:02.065Z,628
2018-01-18T13:51:11.517Z,684
2018-01-18T13:52:21.025Z,976
2018-01-18T13:53:30.760Z,1384
2018-01-18T13:54:40.748Z,1344
2018-01-18T13:55:50.217Z,1264
2018-01-18T13:56:59.160Z,1244
2018-01-18T13:58:08.631Z,984
2018-01-18T13:59:18.363Z,668
2018-01-18T14:00:27.563Z,596
2018-01-18T14:01:36.784Z,620
2018-01-18T14:02:46.750Z,468
2018-01-18T14:03:56.311Z,372
2018-01-18T14:05:06.050Z,476
2018-01-18T14:06:16.115Z,412
2018-01-18T14:07:25.934Z,448
2018-01-18T14:08:35.399Z,464
2018-01-18T14:09:44.727Z,544
2018-01-18T14:10:54.548Z,756
2018-01-18T14:12:04.306Z,1000
2018-01-18T14:13:14.081Z,1032
2018-01-18T14:14:23.854Z,1116
2018-01-18T14:15:33.585Z,1096
2018-01-18T14:16:43.070Z,988
2018-01-18T14:17:52.585Z,900
2018-01-18T14:19:02.072Z,1180
2018-01-18T14:20:11.354Z,1288
2018-01-18T14:21:21.090Z,1196
2018-01-18T14:22:30.309Z,1108
2018-01-18T14:23:40.079Z,1020
2018-01-18T14:24:49.218Z,976
2018-01-18T14:25:58.476Z,924
2018-01-18T14:27:07.958Z,908
2018-01-18T14:28:17.425Z,772
2018-01-18T14:29:26.933Z,512
2018-01-18T14:30:36.505Z,320
2018-01-18T14:31:46.296Z,272
2018-01-18T14:32:56.289Z,344
2018-01-18T14:34:05.484Z,360
2018-01-18T14:35:15.353Z,328
2018-01-18T14:36:24.673Z,360
2018-01-18T14:37:34.144Z,464
2018-01-18T14:38:43.863Z,556
2018-01-18T14:39:53.117Z,508
2018-01-18T14:41:02.757Z,468
2018-01-18T14:42:12.320Z,444
2018-01-18T14:43:21.580Z,344
2018-01-18T14:44:31.103Z,508
2018-01-18T14:45:40.428Z,492
2018-01-18T14:46:50.548Z,720
2018-01-18T14:48:00.155Z,780
2018-01-18T14:49:09.838Z,652
2018-01-18T14:50:19.351Z,400
2018-01-18T14:51:28.847Z,296
2018-01-18T14:52:38.330Z,320
2018-01-18T14:53:47.589Z,308
2018-01-18T14:54:56.798Z,320
2018-01-18T14:56:06.648Z,352
2018-01-18T14:57:16.137Z,364
2018-01-18T14:58:25.723Z,340
2018-01-18T14:59:35.224Z,284
2018-01-18T15:00:45.087Z,320
2018-01-18T15:01:54.481Z,300
2018-01-18T15:03:04.071Z,228
2018-01-18T15:04:13.683Z,176
2018-01-18T15:05:22.925Z,164
2018-01-18T15:06:32.666Z,136
2018-01-18T15:07:41.924Z,140
2018-01-18T15:08:50.870Z,144
2018-01-18T15:10:00.329Z,120
2018-01-18T15:11:10.347Z,120
2018-01-18T15:12:19.286Z,128
2018-01-18T15:13:28.758Z,128
2018-01-18T15:14:38.520Z,144
2018-01-18T15:15:47.979Z,188
2018-01-18T15:16:57.452Z,172
2018-01-18T15:18:06.391Z,152
2018-01-18T15:19:15.635Z,148
2018-01-18T15:20:25.124Z,204
2018-01-18T15:21:34.430Z,256
2018-01-18T15:22:44.172Z,208
2018-01-18T15:23:54.271Z,160
2018-01-18T15:25:03.767Z,124
2018-01-18T15:26:13.507Z,92
2018-01-18T15:27:22.989Z,88
2018-01-18T15:28:31.936Z,84
2018-01-18T15:29:41.721Z,64
2018-01-18T15:30:51.455Z,52
2018-01-18T15:32:00.697Z,44
2018-01-18T15:33:10.422Z,40
2018-01-18T15:34:20.420Z,36
2018-01-18T15:35:29.910Z,32
2018-01-18T15:36:40.097Z,36
2018-01-18T15:37:49.747Z,32
2018-01-18T15:38:59.699Z,32
2018-01-18T15:40:09.573Z,32
2018-01-18T15:41:18.793Z,44
2018-01-18T15:42:27.739Z,52
2018-01-18T15:43:36.699Z,64
2018-01-18T15:44:46.157Z,72
2018-01-18T15:45:55.932Z,64
2018-01-18T15:47:05.434Z,56
2018-01-18T15:48:14.648Z,52
2018-01-18T15:49:23.874Z,48
2018-01-18T15:50:33.081Z,40
2018-01-18T15:51:42.564Z,36
2018-01-18T15:52:52.045Z,32
2018-01-18T15:54:01.810Z,32
2018-01-18T15:55:10.746Z,32
2018-01-18T15:56:20.487Z,32
2018-01-18T15:57:30.416Z,32
2018-01-18T15:58:39.919Z,28
2018-01-18T15:59:49.656Z,28
2018-01-18T16:00:59.665Z,28
2018-01-18T16:02:08.891Z,28
2018-01-18T16:03:18.118Z,24
2018-01-18T16:04:28.160Z,24
2018-01-18T16:05:38.204Z,24
2018-01-18T16:06:47.992Z,16
2018-01-18T16:07:56.965Z,16
2018-01-18T16:09:06.193Z,16
2018-01-18T16:10:15.969Z,12
2018-01-18T16:11:25.453Z,12
2018-01-18T16:12:34.649Z,12
2018-01-18T16:13:44.432Z,8
2018-01-18T16:14:53.950Z,8
2018-01-18T16:16:02.905Z,8
2018-01-18T16:17:12.409Z,8
2018-01-18T16:18:22.168Z,8
2018-01-18T16:19:31.687Z,4
2018-01-18T16:20:40.914Z,8
2018-01-18T16:21:50.384Z,4
2018-01-18T16:22:59.669Z,4
2018-01-18T16:24:09.530Z,4
2018-01-18T16:25:18.930Z,4
2018-01-18T16:26:29.141Z,4